sensor_id;sensor_type;location;lat;lon;timestamp;P1;durP1;ratioP1;P2;durP2;ratioP2
79284;SDS011;68734;50.452;11.636;2023-09-18T00:00:07;5.43;;;4.57;;
79284;SDS011;68734;50.452;11.636;2023-09-18T00:02:36;5.85;;;3.90;;
79284;SDS011;68734;50.452;11.636;2023-09-18T00:05:05;6.13;;;3.42;;
79284;SDS011;68734;50.452;11.636;2023-09-18T00:07:31;4.85;;;4.13;;
79284;SDS011;68734;50.452;11.636;2023-09-18T00:09:56;8.63;;;4.57;;
79284;SDS011;68734;50.452;11.636;2023-09-18T00:12:24;5.03;;;4.03;;
79284;SDS011;68734;50.452;11.636;2023-09-18T00:14:49;6.07;;;4.07;;
79284;SDS011;68734;50.452;11.636;2023-09-18T00:17:16;4.97;;;4.18;;
79284;SDS011;68734;50.452;11.636;2023-09-18T00:19:46;6.50;;;4.22;;
79284;SDS011;68734;50.452;11.636;2023-09-18T00:22:11;6.95;;;4.13;;
79284;SDS011;68734;50.452;11.636;2023-09-18T00:24:37;5.20;;;4.25;;
79284;SDS011;68734;50.452;11.636;2023-09-18T00:27:02;4.63;;;4.00;;
79284;SDS011;68734;50.452;11.636;2023-09-18T00:29:28;7.28;;;4.55;;
79284;SDS011;68734;50.452;11.636;2023-09-18T00:31:56;6.38;;;4.55;;
79284;SDS011;68734;50.452;11.636;2023-09-18T00:34:26;6.20;;;4.10;;
79284;SDS011;68734;50.452;11.636;2023-09-18T00:36:51;5.70;;;4.50;;
79284;SDS011;68734;50.452;11.636;2023-09-18T00:39:16;5.85;;;4.03;;
79284;SDS011;68734;50.452;11.636;2023-09-18T00:41:42;5.72;;;4.40;;
79284;SDS011;68734;50.452;11.636;2023-09-18T00:44:11;6.60;;;4.35;;
79284;SDS011;68734;50.452;11.636;2023-09-18T00:46:36;7.03;;;4.80;;
79284;SDS011;68734;50.452;11.636;2023-09-18T00:49:02;5.22;;;4.53;;
79284;SDS011;68734;50.452;11.636;2023-09-18T00:51:28;9.10;;;5.45;;
79284;SDS011;68734;50.452;11.636;2023-09-18T00:53:53;14.00;;;5.65;;
79284;SDS011;68734;50.452;11.636;2023-09-18T00:56:19;6.43;;;4.78;;
79284;SDS011;68734;50.452;11.636;2023-09-18T00:58:45;7.53;;;5.47;;
79284;SDS011;68734;50.452;11.636;2023-09-18T01:01:11;7.32;;;4.72;;
79284;SDS011;68734;50.452;11.636;2023-09-18T01:03:39;5.50;;;4.68;;
79284;SDS011;68734;50.452;11.636;2023-09-18T01:06:05;6.18;;;4.85;;
79284;SDS011;68734;50.452;11.636;2023-09-18T01:08:30;11.18;;;5.50;;
79284;SDS011;68734;50.452;11.636;2023-09-18T01:14:20;8.32;;;4.43;;
79284;SDS011;68734;50.452;11.636;2023-09-18T01:17:09;6.25;;;4.72;;
79284;SDS011;68734;50.452;11.636;2023-09-18T01:22:10;7.03;;;5.18;;
79284;SDS011;68734;50.452;11.636;2023-09-18T01:24:37;6.90;;;5.20;;
79284;SDS011;68734;50.452;11.636;2023-09-18T01:27:04;6.25;;;4.68;;
79284;SDS011;68734;50.452;11.636;2023-09-18T01:29:31;7.72;;;5.05;;
79284;SDS011;68734;50.452;11.636;2023-09-18T01:31:57;6.38;;;4.90;;
79284;SDS011;68734;50.452;11.636;2023-09-18T01:34:25;7.55;;;5.05;;
79284;SDS011;68734;50.452;11.636;2023-09-18T01:36:57;6.93;;;4.88;;
79284;SDS011;68734;50.452;11.636;2023-09-18T01:39:23;6.78;;;4.47;;
79284;SDS011;68734;50.452;11.636;2023-09-18T01:41:54;5.85;;;4.70;;
79284;SDS011;68734;50.452;11.636;2023-09-18T01:44:20;7.85;;;5.47;;
79284;SDS011;68734;50.452;11.636;2023-09-18T01:46:45;7.05;;;4.68;;
79284;SDS011;68734;50.452;11.636;2023-09-18T01:49:11;8.63;;;5.07;;
79284;SDS011;68734;50.452;11.636;2023-09-18T01:51:36;6.90;;;5.03;;
79284;SDS011;68734;50.452;11.636;2023-09-18T01:54:02;6.07;;;4.72;;
79284;SDS011;68734;50.452;11.636;2023-09-18T01:56:28;7.43;;;5.03;;
79284;SDS011;68734;50.452;11.636;2023-09-18T01:58:54;6.78;;;5.85;;
79284;SDS011;68734;50.452;11.636;2023-09-18T02:01:19;6.32;;;5.20;;
79284;SDS011;68734;50.452;11.636;2023-09-18T02:03:44;7.05;;;4.90;;
79284;SDS011;68734;50.452;11.636;2023-09-18T02:06:11;6.30;;;4.72;;
79284;SDS011;68734;50.452;11.636;2023-09-18T02:08:39;8.00;;;5.20;;
79284;SDS011;68734;50.452;11.636;2023-09-18T02:11:05;5.47;;;4.60;;
79284;SDS011;68734;50.452;11.636;2023-09-18T02:13:30;7.72;;;5.07;;
79284;SDS011;68734;50.452;11.636;2023-09-18T02:15:56;6.45;;;5.00;;
79284;SDS011;68734;50.452;11.636;2023-09-18T02:18:21;6.72;;;4.18;;
79284;SDS011;68734;50.452;11.636;2023-09-18T02:20:49;7.57;;;5.15;;
79284;SDS011;68734;50.452;11.636;2023-09-18T02:23:17;10.57;;;6.40;;
79284;SDS011;68734;50.452;11.636;2023-09-18T02:25:43;7.05;;;5.13;;
79284;SDS011;68734;50.452;11.636;2023-09-18T02:28:09;6.32;;;4.82;;
79284;SDS011;68734;50.452;11.636;2023-09-18T02:30:34;6.85;;;5.53;;
79284;SDS011;68734;50.452;11.636;2023-09-18T02:32:59;6.68;;;4.70;;
79284;SDS011;68734;50.452;11.636;2023-09-18T02:35:28;6.00;;;4.38;;
79284;SDS011;68734;50.452;11.636;2023-09-18T02:37:54;8.15;;;5.78;;
79284;SDS011;68734;50.452;11.636;2023-09-18T02:40:19;6.13;;;5.13;;
79284;SDS011;68734;50.452;11.636;2023-09-18T02:42:45;6.28;;;4.57;;
79284;SDS011;68734;50.452;11.636;2023-09-18T02:45:11;9.40;;;4.78;;
79284;SDS011;68734;50.452;11.636;2023-09-18T02:47:36;7.75;;;4.97;;
79284;SDS011;68734;50.452;11.636;2023-09-18T02:50:06;6.50;;;5.15;;
79284;SDS011;68734;50.452;11.636;2023-09-18T02:52:32;6.50;;;4.25;;
79284;SDS011;68734;50.452;11.636;2023-09-18T02:54:57;7.95;;;4.82;;
79284;SDS011;68734;50.452;11.636;2023-09-18T02:57:22;7.18;;;4.63;;
79284;SDS011;68734;50.452;11.636;2023-09-18T02:59:52;7.55;;;5.25;;
79284;SDS011;68734;50.452;11.636;2023-09-18T03:02:18;6.13;;;4.80;;
79284;SDS011;68734;50.452;11.636;2023-09-18T03:04:43;8.25;;;5.70;;
79284;SDS011;68734;50.452;11.636;2023-09-18T03:07:08;7.72;;;5.25;;
79284;SDS011;68734;50.452;11.636;2023-09-18T03:09:34;5.93;;;4.55;;
79284;SDS011;68734;50.452;11.636;2023-09-18T03:12:02;6.18;;;5.35;;
79284;SDS011;68734;50.452;11.636;2023-09-18T03:14:28;6.00;;;5.13;;
79284;SDS011;68734;50.452;11.636;2023-09-18T03:16:53;7.32;;;4.57;;
79284;SDS011;68734;50.452;11.636;2023-09-18T03:19:19;10.93;;;5.30;;
79284;SDS011;68734;50.452;11.636;2023-09-18T03:21:44;6.45;;;5.05;;
79284;SDS011;68734;50.452;11.636;2023-09-18T03:24:10;9.27;;;5.88;;
79284;SDS011;68734;50.452;11.636;2023-09-18T03:26:35;7.90;;;5.90;;
79284;SDS011;68734;50.452;11.636;2023-09-18T03:29:03;7.00;;;5.35;;
79284;SDS011;68734;50.452;11.636;2023-09-18T03:31:29;7.03;;;4.95;;
79284;SDS011;68734;50.452;11.636;2023-09-18T03:33:55;7.03;;;5.30;;
79284;SDS011;68734;50.452;11.636;2023-09-18T03:36:23;7.70;;;5.50;;
79284;SDS011;68734;50.452;11.636;2023-09-18T03:38:49;6.50;;;4.75;;
79284;SDS011;68734;50.452;11.636;2023-09-18T03:41:14;7.10;;;5.18;;
79284;SDS011;68734;50.452;11.636;2023-09-18T03:43:40;6.63;;;5.07;;
79284;SDS011;68734;50.452;11.636;2023-09-18T03:46:05;7.03;;;5.43;;
79284;SDS011;68734;50.452;11.636;2023-09-18T03:48:32;8.70;;;4.82;;
79284;SDS011;68734;50.452;11.636;2023-09-18T03:51:05;5.63;;;4.32;;
79284;SDS011;68734;50.452;11.636;2023-09-18T03:53:32;5.60;;;4.88;;
79284;SDS011;68734;50.452;11.636;2023-09-18T03:55:58;6.68;;;4.93;;
79284;SDS011;68734;50.452;11.636;2023-09-18T03:58:24;7.03;;;5.47;;
79284;SDS011;68734;50.452;11.636;2023-09-18T04:00:52;7.38;;;4.68;;
79284;SDS011;68734;50.452;11.636;2023-09-18T04:03:18;8.95;;;5.28;;
79284;SDS011;68734;50.452;11.636;2023-09-18T04:05:43;6.45;;;4.57;;
79284;SDS011;68734;50.452;11.636;2023-09-18T04:08:09;10.00;;;5.00;;
79284;SDS011;68734;50.452;11.636;2023-09-18T04:10:34;7.82;;;4.88;;
79284;SDS011;68734;50.452;11.636;2023-09-18T04:13:00;12.00;;;7.68;;
79284;SDS011;68734;50.452;11.636;2023-09-18T04:15:25;12.65;;;7.57;;
79284;SDS011;68734;50.452;11.636;2023-09-18T04:17:52;10.57;;;6.57;;
79284;SDS011;68734;50.452;11.636;2023-09-18T04:20:18;8.40;;;5.93;;
79284;SDS011;68734;50.452;11.636;2023-09-18T04:22:44;6.20;;;4.93;;
79284;SDS011;68734;50.452;11.636;2023-09-18T04:25:14;6.88;;;4.90;;
79284;SDS011;68734;50.452;11.636;2023-09-18T04:27:41;6.60;;;4.93;;
79284;SDS011;68734;50.452;11.636;2023-09-18T04:30:06;5.72;;;4.15;;
79284;SDS011;68734;50.452;11.636;2023-09-18T04:32:35;10.68;;;6.00;;
79284;SDS011;68734;50.452;11.636;2023-09-18T04:35:02;9.70;;;5.85;;
79284;SDS011;68734;50.452;11.636;2023-09-18T04:37:30;11.55;;;6.13;;
79284;SDS011;68734;50.452;11.636;2023-09-18T04:39:55;9.35;;;5.00;;
79284;SDS011;68734;50.452;11.636;2023-09-18T04:42:22;6.88;;;4.68;;
79284;SDS011;68734;50.452;11.636;2023-09-18T04:44:48;6.80;;;4.85;;
79284;SDS011;68734;50.452;11.636;2023-09-18T04:47:14;9.35;;;5.53;;
79284;SDS011;68734;50.452;11.636;2023-09-18T04:49:44;7.93;;;5.03;;
79284;SDS011;68734;50.452;11.636;2023-09-18T04:52:12;8.90;;;5.32;;
79284;SDS011;68734;50.452;11.636;2023-09-18T04:54:38;6.40;;;5.18;;
79284;SDS011;68734;50.452;11.636;2023-09-18T04:57:03;7.53;;;5.25;;
79284;SDS011;68734;50.452;11.636;2023-09-18T04:59:29;7.05;;;4.97;;
79284;SDS011;68734;50.452;11.636;2023-09-18T05:01:57;9.93;;;5.45;;
79284;SDS011;68734;50.452;11.636;2023-09-18T05:04:22;6.45;;;4.97;;
79284;SDS011;68734;50.452;11.636;2023-09-18T05:06:48;7.57;;;5.82;;
79284;SDS011;68734;50.452;11.636;2023-09-18T05:09:13;6.35;;;5.05;;
79284;SDS011;68734;50.452;11.636;2023-09-18T05:11:39;8.85;;;6.28;;
79284;SDS011;68734;50.452;11.636;2023-09-18T05:14:07;8.70;;;6.20;;
79284;SDS011;68734;50.452;11.636;2023-09-18T05:16:32;9.90;;;6.00;;
79284;SDS011;68734;50.452;11.636;2023-09-18T05:19:02;7.95;;;4.45;;
79284;SDS011;68734;50.452;11.636;2023-09-18T05:21:29;5.65;;;4.90;;
79284;SDS011;68734;50.452;11.636;2023-09-18T05:23:54;5.15;;;4.30;;
79284;SDS011;68734;50.452;11.636;2023-09-18T05:26:20;5.13;;;4.03;;
79284;SDS011;68734;50.452;11.636;2023-09-18T05:28:48;4.70;;;3.38;;
79284;SDS011;68734;50.452;11.636;2023-09-18T05:31:15;6.70;;;4.03;;
79284;SDS011;68734;50.452;11.636;2023-09-18T05:33:42;5.50;;;4.00;;
79284;SDS011;68734;50.452;11.636;2023-09-18T05:36:08;4.38;;;3.92;;
79284;SDS011;68734;50.452;11.636;2023-09-18T05:38:33;4.50;;;3.38;;
79284;SDS011;68734;50.452;11.636;2023-09-18T05:41:01;6.22;;;3.65;;
79284;SDS011;68734;50.452;11.636;2023-09-18T05:43:26;6.13;;;4.28;;
79284;SDS011;68734;50.452;11.636;2023-09-18T05:45:52;4.50;;;3.65;;
79284;SDS011;68734;50.452;11.636;2023-09-18T05:48:17;5.32;;;3.90;;
79284;SDS011;68734;50.452;11.636;2023-09-18T05:50:45;5.90;;;3.72;;
79284;SDS011;68734;50.452;11.636;2023-09-18T05:53:10;6.28;;;3.90;;
79284;SDS011;68734;50.452;11.636;2023-09-18T05:55:38;7.15;;;4.78;;
79284;SDS011;68734;50.452;11.636;2023-09-18T05:58:04;4.88;;;3.95;;
79284;SDS011;68734;50.452;11.636;2023-09-18T06:00:32;5.95;;;4.18;;
79284;SDS011;68734;50.452;11.636;2023-09-18T06:02:57;5.60;;;4.28;;
79284;SDS011;68734;50.452;11.636;2023-09-18T06:05:24;10.73;;;3.95;;
79284;SDS011;68734;50.452;11.636;2023-09-18T06:07:50;3.72;;;3.33;;
79284;SDS011;68734;50.452;11.636;2023-09-18T06:10:16;4.95;;;4.00;;
79284;SDS011;68734;50.452;11.636;2023-09-18T06:12:43;6.78;;;4.75;;
79284;SDS011;68734;50.452;11.636;2023-09-18T06:15:09;5.75;;;3.72;;
79284;SDS011;68734;50.452;11.636;2023-09-18T06:17:36;6.55;;;4.22;;
79284;SDS011;68734;50.452;11.636;2023-09-18T06:20:06;5.35;;;4.00;;
79284;SDS011;68734;50.452;11.636;2023-09-18T06:22:38;4.63;;;3.58;;
79284;SDS011;68734;50.452;11.636;2023-09-18T06:25:04;5.05;;;4.05;;
79284;SDS011;68734;50.452;11.636;2023-09-18T06:27:31;4.95;;;3.65;;
79284;SDS011;68734;50.452;11.636;2023-09-18T06:30:00;6.20;;;4.15;;
79284;SDS011;68734;50.452;11.636;2023-09-18T06:32:25;4.68;;;3.90;;
79284;SDS011;68734;50.452;11.636;2023-09-18T06:34:56;4.93;;;3.33;;
79284;SDS011;68734;50.452;11.636;2023-09-18T06:37:25;4.63;;;3.92;;
79284;SDS011;68734;50.452;11.636;2023-09-18T06:39:50;4.35;;;3.30;;
79284;SDS011;68734;50.452;11.636;2023-09-18T06:42:17;5.47;;;4.22;;
79284;SDS011;68734;50.452;11.636;2023-09-18T06:44:42;4.68;;;3.50;;
79284;SDS011;68734;50.452;11.636;2023-09-18T06:47:07;5.82;;;3.65;;
79284;SDS011;68734;50.452;11.636;2023-09-18T06:49:33;5.70;;;2.85;;
79284;SDS011;68734;50.452;11.636;2023-09-18T06:51:59;4.78;;;3.40;;
79284;SDS011;68734;50.452;11.636;2023-09-18T06:54:25;3.38;;;2.65;;
79284;SDS011;68734;50.452;11.636;2023-09-18T06:56:52;4.15;;;2.90;;
79284;SDS011;68734;50.452;11.636;2023-09-18T06:59:18;2.83;;;2.50;;
79284;SDS011;68734;50.452;11.636;2023-09-18T07:01:43;4.03;;;2.53;;
79284;SDS011;68734;50.452;11.636;2023-09-18T07:04:09;2.78;;;2.45;;
79284;SDS011;68734;50.452;11.636;2023-09-18T07:06:34;3.30;;;2.45;;
79284;SDS011;68734;50.452;11.636;2023-09-18T07:09:00;3.17;;;2.30;;
79284;SDS011;68734;50.452;11.636;2023-09-18T07:11:25;2.45;;;2.25;;
79284;SDS011;68734;50.452;11.636;2023-09-18T07:13:51;3.78;;;2.67;;
79284;SDS011;68734;50.452;11.636;2023-09-18T07:16:16;6.55;;;2.65;;
79284;SDS011;68734;50.452;11.636;2023-09-18T07:18:42;4.05;;;2.55;;
79284;SDS011;68734;50.452;11.636;2023-09-18T07:21:08;5.03;;;3.10;;
79284;SDS011;68734;50.452;11.636;2023-09-18T07:23:36;3.35;;;2.70;;
79284;SDS011;68734;50.452;11.636;2023-09-18T07:26:02;3.60;;;2.38;;
79284;SDS011;68734;50.452;11.636;2023-09-18T07:28:31;2.92;;;2.40;;
79284;SDS011;68734;50.452;11.636;2023-09-18T07:30:56;3.45;;;2.50;;
79284;SDS011;68734;50.452;11.636;2023-09-18T07:33:22;6.72;;;3.03;;
79284;SDS011;68734;50.452;11.636;2023-09-18T07:35:50;3.33;;;2.60;;
79284;SDS011;68734;50.452;11.636;2023-09-18T07:38:18;3.53;;;2.65;;
79284;SDS011;68734;50.452;11.636;2023-09-18T07:40:46;3.42;;;2.80;;
79284;SDS011;68734;50.452;11.636;2023-09-18T07:43:12;4.30;;;2.60;;
79284;SDS011;68734;50.452;11.636;2023-09-18T07:45:38;5.28;;;3.08;;
79284;SDS011;68734;50.452;11.636;2023-09-18T07:48:05;4.10;;;3.22;;
79284;SDS011;68734;50.452;11.636;2023-09-18T07:50:32;4.20;;;2.63;;
79284;SDS011;68734;50.452;11.636;2023-09-18T07:52:58;3.08;;;2.60;;
79284;SDS011;68734;50.452;11.636;2023-09-18T07:55:24;4.97;;;2.65;;
79284;SDS011;68734;50.452;11.636;2023-09-18T07:57:50;4.30;;;2.63;;
79284;SDS011;68734;50.452;11.636;2023-09-18T08:00:18;3.25;;;2.45;;
79284;SDS011;68734;50.452;11.636;2023-09-18T08:02:44;5.40;;;3.13;;
79284;SDS011;68734;50.452;11.636;2023-09-18T08:05:11;6.13;;;3.63;;
79284;SDS011;68734;50.452;11.636;2023-09-18T08:07:36;3.42;;;3.05;;
79284;SDS011;68734;50.452;11.636;2023-09-18T08:10:05;3.92;;;2.80;;
79284;SDS011;68734;50.452;11.636;2023-09-18T08:12:33;7.15;;;2.88;;
79284;SDS011;68734;50.452;11.636;2023-09-18T08:15:02;8.13;;;2.65;;
79284;SDS011;68734;50.452;11.636;2023-09-18T08:17:31;4.32;;;3.03;;
79284;SDS011;68734;50.452;11.636;2023-09-18T08:19:56;5.63;;;3.88;;
79284;SDS011;68734;50.452;11.636;2023-09-18T08:22:23;4.18;;;3.15;;
79284;SDS011;68734;50.452;11.636;2023-09-18T08:24:49;3.38;;;2.85;;
79284;SDS011;68734;50.452;11.636;2023-09-18T08:27:17;2.80;;;2.50;;
79284;SDS011;68734;50.452;11.636;2023-09-18T08:29:44;4.45;;;2.95;;
79284;SDS011;68734;50.452;11.636;2023-09-18T08:32:13;5.95;;;3.45;;
79284;SDS011;68734;50.452;11.636;2023-09-18T08:34:38;5.40;;;3.53;;
79284;SDS011;68734;50.452;11.636;2023-09-18T08:37:06;4.80;;;3.05;;
79284;SDS011;68734;50.452;11.636;2023-09-18T08:39:31;4.03;;;2.97;;
79284;SDS011;68734;50.452;11.636;2023-09-18T08:42:04;4.63;;;3.25;;
79284;SDS011;68734;50.452;11.636;2023-09-18T08:44:32;3.17;;;2.70;;
79284;SDS011;68734;50.452;11.636;2023-09-18T08:46:57;6.80;;;2.80;;
79284;SDS011;68734;50.452;11.636;2023-09-18T08:49:23;5.05;;;3.30;;
79284;SDS011;68734;50.452;11.636;2023-09-18T08:51:49;6.53;;;2.88;;
79284;SDS011;68734;50.452;11.636;2023-09-18T08:54:16;4.57;;;2.72;;
79284;SDS011;68734;50.452;11.636;2023-09-18T08:56:41;6.97;;;2.83;;
79284;SDS011;68734;50.452;11.636;2023-09-18T08:59:07;4.60;;;2.80;;
79284;SDS011;68734;50.452;11.636;2023-09-18T09:01:32;5.90;;;2.75;;
79284;SDS011;68734;50.452;11.636;2023-09-18T09:03:58;8.80;;;3.58;;
79284;SDS011;68734;50.452;11.636;2023-09-18T09:06:25;3.80;;;3.25;;
79284;SDS011;68734;50.452;11.636;2023-09-18T09:08:50;13.98;;;3.53;;
79284;SDS011;68734;50.452;11.636;2023-09-18T09:11:16;9.68;;;3.10;;
79284;SDS011;68734;50.452;11.636;2023-09-18T09:13:43;5.10;;;3.10;;
79284;SDS011;68734;50.452;11.636;2023-09-18T09:16:10;9.23;;;4.00;;
79284;SDS011;68734;50.452;11.636;2023-09-18T09:18:46;6.55;;;3.25;;
79284;SDS011;68734;50.452;11.636;2023-09-18T09:21:13;9.75;;;2.90;;
79284;SDS011;68734;50.452;11.636;2023-09-18T09:23:45;10.52;;;2.33;;
79284;SDS011;68734;50.452;11.636;2023-09-18T09:26:21;10.98;;;3.03;;
79284;SDS011;68734;50.452;11.636;2023-09-18T09:28:47;9.48;;;3.08;;
79284;SDS011;68734;50.452;11.636;2023-09-18T09:31:25;8.05;;;2.70;;
79284;SDS011;68734;50.452;11.636;2023-09-18T09:33:53;8.10;;;3.22;;
79284;SDS011;68734;50.452;11.636;2023-09-18T09:36:24;14.27;;;3.47;;
79284;SDS011;68734;50.452;11.636;2023-09-18T09:38:54;10.98;;;2.78;;
79284;SDS011;68734;50.452;11.636;2023-09-18T09:41:22;12.95;;;2.63;;
79284;SDS011;68734;50.452;11.636;2023-09-18T09:43:47;12.50;;;2.50;;
79284;SDS011;68734;50.452;11.636;2023-09-18T09:46:16;8.77;;;2.67;;
79284;SDS011;68734;50.452;11.636;2023-09-18T09:49:02;6.88;;;3.08;;
79284;SDS011;68734;50.452;11.636;2023-09-18T09:51:33;5.55;;;3.03;;
79284;SDS011;68734;50.452;11.636;2023-09-18T09:54:00;7.88;;;2.92;;
79284;SDS011;68734;50.452;11.636;2023-09-18T09:56:45;15.00;;;2.85;;
79284;SDS011;68734;50.452;11.636;2023-09-18T09:59:14;16.40;;;2.85;;
79284;SDS011;68734;50.452;11.636;2023-09-18T10:01:40;7.57;;;2.40;;
79284;SDS011;68734;50.452;11.636;2023-09-18T10:04:12;8.57;;;2.10;;
79284;SDS011;68734;50.452;11.636;2023-09-18T10:06:47;15.38;;;2.83;;
79284;SDS011;68734;50.452;11.636;2023-09-18T10:09:20;6.13;;;2.22;;
79284;SDS011;68734;50.452;11.636;2023-09-18T10:11:49;5.40;;;2.03;;
79284;SDS011;68734;50.452;11.636;2023-09-18T10:14:20;4.35;;;2.20;;
79284;SDS011;68734;50.452;11.636;2023-09-18T10:16:54;7.65;;;2.25;;
79284;SDS011;68734;50.452;11.636;2023-09-18T10:24:34;3.85;;;1.65;;
79284;SDS011;68734;50.452;11.636;2023-09-18T10:27:04;8.25;;;2.17;;
79284;SDS011;68734;50.452;11.636;2023-09-18T10:29:34;2.55;;;1.60;;
79284;SDS011;68734;50.452;11.636;2023-09-18T10:32:04;4.60;;;2.03;;
79284;SDS011;68734;50.452;11.636;2023-09-18T10:34:33;4.32;;;2.03;;
79284;SDS011;68734;50.452;11.636;2023-09-18T10:37:02;7.47;;;2.10;;
79284;SDS011;68734;50.452;11.636;2023-09-18T10:39:31;3.70;;;1.63;;
79284;SDS011;68734;50.452;11.636;2023-09-18T10:42:02;7.47;;;1.88;;
79284;SDS011;68734;50.452;11.636;2023-09-18T10:44:29;4.88;;;2.00;;
79284;SDS011;68734;50.452;11.636;2023-09-18T10:46:58;10.18;;;2.22;;
79284;SDS011;68734;50.452;11.636;2023-09-18T10:49:25;4.05;;;1.90;;
79284;SDS011;68734;50.452;11.636;2023-09-18T10:51:54;3.47;;;1.73;;
79284;SDS011;68734;50.452;11.636;2023-09-18T10:54:24;3.05;;;1.70;;
79284;SDS011;68734;50.452;11.636;2023-09-18T10:56:53;4.40;;;2.03;;
79284;SDS011;68734;50.452;11.636;2023-09-18T10:59:21;4.53;;;1.88;;
79284;SDS011;68734;50.452;11.636;2023-09-18T11:01:47;4.88;;;1.77;;
79284;SDS011;68734;50.452;11.636;2023-09-18T11:04:13;4.35;;;1.83;;
79284;SDS011;68734;50.452;11.636;2023-09-18T11:09:24;3.78;;;1.70;;
79284;SDS011;68734;50.452;11.636;2023-09-18T11:11:53;9.85;;;2.40;;
79284;SDS011;68734;50.452;11.636;2023-09-18T11:14:22;3.88;;;1.70;;
79284;SDS011;68734;50.452;11.636;2023-09-18T11:17:06;4.95;;;2.00;;
79284;SDS011;68734;50.452;11.636;2023-09-18T11:19:57;7.88;;;2.03;;
79284;SDS011;68734;50.452;11.636;2023-09-18T11:22:48;5.30;;;2.00;;
79284;SDS011;68734;50.452;11.636;2023-09-18T11:28:02;8.00;;;2.38;;
79284;SDS011;68734;50.452;11.636;2023-09-18T11:30:28;8.63;;;1.88;;
79284;SDS011;68734;50.452;11.636;2023-09-18T11:32:58;4.50;;;2.15;;
79284;SDS011;68734;50.452;11.636;2023-09-18T11:35:24;6.22;;;1.80;;
79284;SDS011;68734;50.452;11.636;2023-09-18T11:38:11;4.50;;;1.95;;
79284;SDS011;68734;50.452;11.636;2023-09-18T11:40:36;9.75;;;2.05;;
79284;SDS011;68734;50.452;11.636;2023-09-18T11:43:19;9.80;;;2.20;;
79284;SDS011;68734;50.452;11.636;2023-09-18T11:45:51;5.65;;;1.90;;
79284;SDS011;68734;50.452;11.636;2023-09-18T11:48:21;6.75;;;1.75;;
79284;SDS011;68734;50.452;11.636;2023-09-18T11:50:49;1.92;;;1.40;;
79284;SDS011;68734;50.452;11.636;2023-09-18T11:53:17;2.63;;;1.60;;
79284;SDS011;68734;50.452;11.636;2023-09-18T11:55:44;3.85;;;2.13;;
79284;SDS011;68734;50.452;11.636;2023-09-18T11:58:09;5.30;;;2.53;;
79284;SDS011;68734;50.452;11.636;2023-09-18T12:00:35;5.15;;;1.55;;
79284;SDS011;68734;50.452;11.636;2023-09-18T12:03:14;4.45;;;1.60;;
79284;SDS011;68734;50.452;11.636;2023-09-18T12:06:00;6.95;;;1.33;;
79284;SDS011;68734;50.452;11.636;2023-09-18T12:08:30;3.38;;;1.10;;
79284;SDS011;68734;50.452;11.636;2023-09-18T12:10:58;5.10;;;1.40;;
79284;SDS011;68734;50.452;11.636;2023-09-18T12:13:26;5.28;;;2.92;;
79284;SDS011;68734;50.452;11.636;2023-09-18T12:18:30;4.13;;;1.40;;
79284;SDS011;68734;50.452;11.636;2023-09-18T12:20:56;6.03;;;1.60;;
79284;SDS011;68734;50.452;11.636;2023-09-18T12:23:24;4.63;;;1.33;;
79284;SDS011;68734;50.452;11.636;2023-09-18T12:25:50;4.20;;;1.60;;
79284;SDS011;68734;50.452;11.636;2023-09-18T12:28:24;3.33;;;1.33;;
79284;SDS011;68734;50.452;11.636;2023-09-18T12:30:53;3.20;;;1.30;;
79284;SDS011;68734;50.452;11.636;2023-09-18T12:33:21;4.30;;;1.50;;
79284;SDS011;68734;50.452;11.636;2023-09-18T12:35:47;5.15;;;1.20;;
79284;SDS011;68734;50.452;11.636;2023-09-18T12:38:13;4.68;;;1.27;;
79284;SDS011;68734;50.452;11.636;2023-09-18T12:40:40;9.98;;;1.38;;
79284;SDS011;68734;50.452;11.636;2023-09-18T12:43:05;3.15;;;1.10;;
79284;SDS011;68734;50.452;11.636;2023-09-18T12:45:31;3.05;;;1.25;;
79284;SDS011;68734;50.452;11.636;2023-09-18T12:47:57;3.17;;;1.80;;
79284;SDS011;68734;50.452;11.636;2023-09-18T12:50:26;4.45;;;1.70;;
79284;SDS011;68734;50.452;11.636;2023-09-18T12:52:52;4.95;;;2.50;;
79284;SDS011;68734;50.452;11.636;2023-09-18T12:55:24;4.82;;;1.50;;
79284;SDS011;68734;50.452;11.636;2023-09-18T12:57:51;5.13;;;1.45;;
79284;SDS011;68734;50.452;11.636;2023-09-18T13:00:18;5.28;;;1.30;;
79284;SDS011;68734;50.452;11.636;2023-09-18T13:02:46;4.00;;;1.13;;
79284;SDS011;68734;50.452;11.636;2023-09-18T13:05:11;4.45;;;1.20;;
79284;SDS011;68734;50.452;11.636;2023-09-18T13:07:45;4.78;;;1.20;;
79284;SDS011;68734;50.452;11.636;2023-09-18T13:10:12;1.98;;;1.00;;
79284;SDS011;68734;50.452;11.636;2023-09-18T13:12:47;3.05;;;0.90;;
79284;SDS011;68734;50.452;11.636;2023-09-18T13:15:30;3.70;;;1.00;;
79284;SDS011;68734;50.452;11.636;2023-09-18T13:17:58;5.32;;;1.52;;
79284;SDS011;68734;50.452;11.636;2023-09-18T13:20:26;2.05;;;0.98;;
79284;SDS011;68734;50.452;11.636;2023-09-18T13:22:57;7.78;;;1.40;;
79284;SDS011;68734;50.452;11.636;2023-09-18T13:25:28;2.53;;;1.10;;
79284;SDS011;68734;50.452;11.636;2023-09-18T13:27:55;3.65;;;1.33;;
79284;SDS011;68734;50.452;11.636;2023-09-18T13:30:21;3.65;;;1.15;;
79284;SDS011;68734;50.452;11.636;2023-09-18T13:32:48;4.10;;;2.15;;
79284;SDS011;68734;50.452;11.636;2023-09-18T13:35:17;7.40;;;1.40;;
79284;SDS011;68734;50.452;11.636;2023-09-18T13:37:43;1.75;;;1.05;;
79284;SDS011;68734;50.452;11.636;2023-09-18T13:40:10;4.68;;;1.30;;
79284;SDS011;68734;50.452;11.636;2023-09-18T13:42:36;9.20;;;2.97;;
79284;SDS011;68734;50.452;11.636;2023-09-18T13:45:05;2.13;;;1.20;;
79284;SDS011;68734;50.452;11.636;2023-09-18T13:47:32;2.90;;;1.00;;
79284;SDS011;68734;50.452;11.636;2023-09-18T13:49:59;2.05;;;1.30;;
79284;SDS011;68734;50.452;11.636;2023-09-18T13:52:32;5.68;;;1.08;;
79284;SDS011;68734;50.452;11.636;2023-09-18T13:54:59;6.80;;;1.33;;
79284;SDS011;68734;50.452;11.636;2023-09-18T13:57:25;2.00;;;1.17;;
79284;SDS011;68734;50.452;11.636;2023-09-18T13:59:50;4.40;;;1.13;;
79284;SDS011;68734;50.452;11.636;2023-09-18T14:02:17;3.50;;;1.30;;
79284;SDS011;68734;50.452;11.636;2023-09-18T14:04:45;5.18;;;1.10;;
79284;SDS011;68734;50.452;11.636;2023-09-18T14:07:11;2.50;;;0.98;;
79284;SDS011;68734;50.452;11.636;2023-09-18T14:09:37;3.38;;;1.10;;
79284;SDS011;68734;50.452;11.636;2023-09-18T14:12:03;6.18;;;1.30;;
79284;SDS011;68734;50.452;11.636;2023-09-18T14:14:32;5.15;;;2.08;;
79284;SDS011;68734;50.452;11.636;2023-09-18T14:17:00;3.53;;;1.30;;
79284;SDS011;68734;50.452;11.636;2023-09-18T14:19:29;1.55;;;0.90;;
79284;SDS011;68734;50.452;11.636;2023-09-18T14:21:54;1.40;;;0.88;;
79284;SDS011;68734;50.452;11.636;2023-09-18T14:24:20;2.05;;;0.88;;
79284;SDS011;68734;50.452;11.636;2023-09-18T14:26:49;4.80;;;1.13;;
79284;SDS011;68734;50.452;11.636;2023-09-18T14:29:15;4.10;;;1.58;;
79284;SDS011;68734;50.452;11.636;2023-09-18T14:31:43;2.15;;;0.93;;
79284;SDS011;68734;50.452;11.636;2023-09-18T14:34:09;2.45;;;1.00;;
79284;SDS011;68734;50.452;11.636;2023-09-18T14:36:35;7.07;;;1.00;;
79284;SDS011;68734;50.452;11.636;2023-09-18T14:39:01;2.00;;;1.13;;
79284;SDS011;68734;50.452;11.636;2023-09-18T14:41:29;2.15;;;0.88;;
79284;SDS011;68734;50.452;11.636;2023-09-18T14:43:55;1.35;;;0.80;;
79284;SDS011;68734;50.452;11.636;2023-09-18T14:46:22;2.38;;;0.82;;
79284;SDS011;68734;50.452;11.636;2023-09-18T14:48:48;3.60;;;1.65;;
79284;SDS011;68734;50.452;11.636;2023-09-18T14:51:13;4.60;;;1.50;;
79284;SDS011;68734;50.452;11.636;2023-09-18T14:53:39;3.70;;;1.30;;